Time;durP1;ratioP1;P1;durP2;ratioP2;P2;SDS_P1;SDS_P2;PMS_P1;PMS_P2;Temp;Humidity;BMP_temperature;BMP_pressure;BME280_temperature;BME280_humidity;BME280_pressure;Samples;Min_cycle;Max_cycle;Signal;HPM_P1;HPM_P2
2023/03/13 00:00:05;;;;;;;6.03;2.25;;;;;;;;;;1026711;28;20098;-82
2023/03/13 00:00:36;;;;;;;6.60;2.55;;;;;;;;;;1026161;28;20669;-81
2023/03/13 00:01:13;;;;;;;9.13;2.95;;;;;;;;;;1023065;29;20796;-81
2023/03/13 00:01:48;;;;;;;6.93;2.42;;;;;;;;;;1022204;29;20191;-81
2023/03/13 00:02:19;;;;;;;6.25;2.97;;;;;;;;;;1018956;29;20028;-81
2023/03/13 00:02:50;;;;;;;6.50;3.28;;;;;;;;;;1020587;29;20023;-81
2023/03/13 00:03:21;;;;;;;6.57;2.70;;;;;;;;;;1019279;29;20114;-81
2023/03/13 00:03:54;;;;;;;6.32;2.60;;;;;;;;;;1019039;29;20020;-82
2023/03/13 00:04:25;;;;;;;8.60;2.70;;;;;;;;;;1018701;29;20415;-82
2023/03/13 00:04:56;;;;;;;7.30;3.08;;;;;;;;;;1018478;29;20024;-81
2023/03/13 00:05:27;;;;;;;8.07;3.67;;;;;;;;;;1015208;29;20032;-82
2023/03/13 00:05:58;;;;;;;9.02;3.38;;;;;;;;;;1015134;29;20034;-82
2023/03/13 00:06:33;;;;;;;8.25;2.85;;;;;;;;;;1018726;29;20024;-81
2023/03/13 00:07:04;;;;;;;7.22;3.15;;;;;;;;;;1018053;29;20023;-81
2023/03/13 00:07:35;;;;;;;5.93;2.58;;;;;;;;;;1019776;29;20093;-81
2023/03/13 00:08:06;;;;;;;4.95;2.40;;;;;;;;;;1022736;29;20027;-81
2023/03/13 00:08:38;;;;;;;7.53;2.80;;;;;;;;;;1022189;29;20111;-81
2023/03/13 00:09:10;;;;;;;7.35;2.92;;;;;;;;;;1021843;29;20046;-82
2023/03/13 00:09:41;;;;;;;6.90;2.80;;;;;;;;;;1022790;28;20098;-81
2023/03/13 00:10:12;;;;;;;8.93;3.58;;;;;;;;;;1018477;29;20030;-81
2023/03/13 00:10:43;;;;;;;7.85;3.42;;;;;;;;;;1019267;29;20522;-81
2023/03/13 00:11:14;;;;;;;5.40;2.45;;;;;;;;;;1022736;29;20015;-80
2023/03/13 00:11:46;;;;;;;7.20;3.30;;;;;;;;;;1023041;28;20026;-81
2023/03/13 00:12:17;;;;;;;8.38;3.15;;;;;;;;;;1026110;28;20114;-81
2023/03/13 00:12:48;;;;;;;8.70;3.17;;;;;;;;;;1023370;28;20125;-81
2023/03/13 00:13:19;;;;;;;7.82;3.85;;;;;;;;;;1026444;28;20054;-82
2023/03/13 00:13:53;;;;;;;8.55;3.33;;;;;;;;;;1022916;28;20020;-81
2023/03/13 00:14:24;;;;;;;6.93;2.60;;;;;;;;;;1018612;29;20059;-82
2023/03/13 00:14:55;;;;;;;7.93;2.78;;;;;;;;;;1019170;29;20020;-81
2023/03/13 00:15:26;;;;;;;7.38;2.85;;;;;;;;;;1019012;29;20091;-81
2023/03/13 00:16:01;;;;;;;8.73;3.25;;;;;;;;;;1022805;29;20023;-81
2023/03/13 00:16:34;;;;;;;7.47;2.83;;;;;;;;;;1022471;29;20027;-82
2023/03/13 00:17:05;;;;;;;6.00;2.70;;;;;;;;;;1022900;29;20079;-81
2023/03/13 00:17:36;;;;;;;9.45;3.28;;;;;;;;;;1023176;28;21759;-81
2023/03/13 00:18:07;;;;;;;6.25;3.08;;;;;;;;;;1026199;28;20410;-82
2023/03/13 00:18:38;;;;;;;5.27;2.60;;;;;;;;;;1022606;29;20551;-82
2023/03/13 00:19:09;;;;;;;5.85;2.50;;;;;;;;;;1023324;29;20313;-82
2023/03/13 00:19:40;;;;;;;5.22;2.47;;;;;;;;;;1022705;28;20020;-82
2023/03/13 00:20:12;;;;;;;9.07;2.92;;;;;;;;;;1022840;29;20027;-82
2023/03/13 00:20:42;;;;;;;7.13;2.65;;;;;;;;;;1022772;29;20369;-82
2023/03/13 00:21:14;;;;;;;7.95;3.60;;;;;;;;;;1022303;28;20086;-82
2023/03/13 00:21:45;;;;;;;10.43;3.20;;;;;;;;;;1022524;29;20031;-83
2023/03/13 00:22:16;;;;;;;6.85;2.92;;;;;;;;;;1022798;29;20118;-83
2023/03/13 00:22:47;;;;;;;7.57;2.75;;;;;;;;;;1022488;28;20027;-82
2023/03/13 00:23:18;;;;;;;8.27;2.85;;;;;;;;;;1026869;28;20026;-82
2023/03/13 00:23:49;;;;;;;7.65;2.80;;;;;;;;;;1025595;28;20078;-83
2023/03/13 00:24:20;;;;;;;8.95;2.97;;;;;;;;;;1022988;29;20027;-82
2023/03/13 00:24:51;;;;;;;5.88;2.75;;;;;;;;;;1025779;28;20019;-82
2023/03/13 00:25:22;;;;;;;5.97;2.67;;;;;;;;;;1022965;28;20051;-82
2023/03/13 00:26:00;;;;;;;5.70;2.85;;;;;;;;;;1026529;28;20026;-82
2023/03/13 00:26:31;;;;;;;6.60;2.60;;;;;;;;;;1026184;28;20031;-82
2023/03/13 00:27:03;;;;;;;6.47;2.95;;;;;;;;;;1026645;28;20023;-83
2023/03/13 00:27:34;;;;;;;6.57;2.50;;;;;;;;;;1022777;29;20065;-82
2023/03/13 00:28:05;;;;;;;8.18;2.92;;;;;;;;;;1022236;28;20761;-82
2023/03/13 00:28:37;;;;;;;9.38;3.50;;;;;;;;;;1022497;29;20604;-82
2023/03/13 00:29:08;;;;;;;6.57;2.55;;;;;;;;;;1022276;29;20028;-82
2023/03/13 00:30:00;;;;;;;7.15;2.63;;;;;;;;;;1029357;28;20054;-81
2023/03/13 00:30:36;;;;;;;6.55;2.50;;;;;;;;;;1028026;28;20083;-81
2023/03/13 00:31:17;;;;;;;6.60;3.20;;;;;;;;;;1026566;28;20470;-81
2023/03/13 00:31:48;;;;;;;9.13;2.92;;;;;;;;;;1022280;29;20083;-82
2023/03/13 00:32:19;;;;;;;5.95;2.83;;;;;;;;;;1024024;29;20521;-82
2023/03/13 00:32:50;;;;;;;7.55;3.00;;;;;;;;;;1022341;29;20038;-81
2023/03/13 00:33:24;;;;;;;6.50;2.90;;;;;;;;;;1024292;28;20017;-80
2023/03/13 00:33:57;;;;;;;6.45;2.10;;;;;;;;;;1019335;29;20057;-80
2023/03/13 00:34:50;;;;;;;6.18;2.65;;;;;;;;;;1020332;29;20103;-80
2023/03/13 00:35:21;;;;;;;8.70;3.08;;;;;;;;;;1025373;29;20023;-82
2023/03/13 00:35:57;;;;;;;6.32;2.63;;;;;;;;;;1026335;28;20069;-82
2023/03/13 00:36:29;;;;;;;7.45;2.95;;;;;;;;;;1025636;28;20027;-82
2023/03/13 00:37:00;;;;;;;4.75;2.35;;;;;;;;;;1024168;28;20114;-81
2023/03/13 00:37:31;;;;;;;7.72;2.83;;;;;;;;;;1021929;29;20030;-82
2023/03/13 00:38:02;;;;;;;7.15;3.08;;;;;;;;;;1019415;29;20034;-81
2023/03/13 00:38:33;;;;;;;7.20;2.88;;;;;;;;;;1022739;29;20023;-83
2023/03/13 00:39:05;;;;;;;9.40;3.10;;;;;;;;;;1022950;29;20023;-82
2023/03/13 00:39:36;;;;;;;4.70;2.42;;;;;;;;;;1026546;28;20030;-82
2023/03/13 00:40:07;;;;;;;7.30;2.55;;;;;;;;;;1026936;28;20129;-83
2023/03/13 00:40:39;;;;;;;7.60;2.65;;;;;;;;;;1022455;29;20062;-83
2023/03/13 00:41:12;;;;;;;6.10;3.22;;;;;;;;;;1024883;28;20098;-83
2023/03/13 00:41:43;;;;;;;6.25;3.13;;;;;;;;;;1022766;28;20475;-83
2023/03/13 00:42:14;;;;;;;6.65;3.10;;;;;;;;;;1022650;29;20136;-82
2023/03/13 00:42:45;;;;;;;6.82;2.85;;;;;;;;;;1022770;29;20430;-83
2023/03/13 00:43:16;;;;;;;8.30;2.88;;;;;;;;;;1021001;29;20127;-82
2023/03/13 00:43:47;;;;;;;7.68;3.38;;;;;;;;;;1018677;29;20372;-83
2023/03/13 00:44:18;;;;;;;7.20;3.17;;;;;;;;;;1019211;29;20368;-83
2023/03/13 00:44:49;;;;;;;5.07;2.70;;;;;;;;;;1014715;29;20789;-83
2023/03/13 00:45:20;;;;;;;6.10;3.20;;;;;;;;;;1015159;29;20024;-85
2023/03/13 00:45:51;;;;;;;6.72;2.92;;;;;;;;;;1018824;29;20028;-83
2023/03/13 00:46:23;;;;;;;5.10;2.80;;;;;;;;;;1017832;29;20024;-83
2023/03/13 00:46:54;;;;;;;8.88;3.60;;;;;;;;;;1018254;29;20143;-83
2023/03/13 00:47:25;;;;;;;7.90;3.28;;;;;;;;;;1018601;29;20028;-83
2023/03/13 00:47:56;;;;;;;8.57;2.97;;;;;;;;;;1018882;29;20110;-83
2023/03/13 00:48:27;;;;;;;6.68;2.80;;;;;;;;;;1022382;29;20019;-83
2023/03/13 00:48:58;;;;;;;5.35;2.47;;;;;;;;;;1022569;29;20140;-82
2023/03/13 00:49:29;;;;;;;6.78;3.03;;;;;;;;;;1022835;29;20082;-81
2023/03/13 00:50:00;;;;;;;7.93;3.13;;;;;;;;;;1022404;28;20032;-83
2023/03/13 00:50:31;;;;;;;6.10;2.60;;;;;;;;;;1018946;29;20342;-83
2023/03/13 00:51:03;;;;;;;6.47;2.92;;;;;;;;;;1018537;29;20035;-83
2023/03/13 00:51:34;;;;;;;7.90;2.80;;;;;;;;;;1018147;29;20039;-83
2023/03/13 00:52:05;;;;;;;5.68;2.80;;;;;;;;;;1017917;29;20031;-83
2023/03/13 00:52:36;;;;;;;7.95;2.92;;;;;;;;;;1014881;29;20654;-83
2023/03/13 00:53:07;;;;;;;8.27;3.70;;;;;;;;;;1018262;29;20475;-83
2023/03/13 00:53:38;;;;;;;7.38;3.25;;;;;;;;;;1021852;28;20051;-83
2023/03/13 00:54:09;;;;;;;6.88;2.85;;;;;;;;;;1018304;29;20654;-83
2023/03/13 00:54:40;;;;;;;7.38;3.15;;;;;;;;;;1018367;29;20095;-81
2023/03/13 00:55:11;;;;;;;6.90;2.75;;;;;;;;;;1017789;29;20078;-83
2023/03/13 00:55:52;;;;;;;9.35;2.80;;;;;;;;;;1018662;29;20530;-83
2023/03/13 00:56:23;;;;;;;6.32;3.08;;;;;;;;;;1015852;29;20055;-82
2023/03/13 00:56:54;;;;;;;8.63;2.65;;;;;;;;;;1019795;29;20062;-82
2023/03/13 00:57:25;;;;;;;9.93;3.05;;;;;;;;;;1022358;29;20027;-82
2023/03/13 00:57:56;;;;;;;5.50;2.40;;;;;;;;;;1022515;28;20037;-81
2023/03/13 00:58:28;;;;;;;6.15;2.67;;;;;;;;;;1022068;29;20023;-82
2023/03/13 00:59:00;;;;;;;8.65;3.33;;;;;;;;;;1022474;29;20038;-82
2023/03/13 00:59:31;;;;;;;5.47;2.50;;;;;;;;;;1018200;29;20027;-83
2023/03/13 01:00:07;;;;;;;5.82;2.58;;;;;;;;;;1019238;29;20422;-82
2023/03/13 01:00:38;;;;;;;6.25;2.88;;;;;;;;;;1018283;29;20118;-82
2023/03/13 01:01:10;;;;;;;6.80;2.38;;;;;;;;;;1019245;29;20032;-82
2023/03/13 01:01:41;;;;;;;4.53;2.70;;;;;;;;;;1023266;28;20450;-82
2023/03/13 01:02:12;;;;;;;7.28;2.97;;;;;;;;;;1021483;28;20154;-82
2023/03/13 01:02:43;;;;;;;6.15;2.40;;;;;;;;;;1018125;29;20451;-83
2023/03/13 01:03:15;;;;;;;5.53;2.42;;;;;;;;;;1018113;29;20363;-83
2023/03/13 01:03:48;;;;;;;8.65;3.10;;;;;;;;;;1014705;29;20040;-83
2023/03/13 01:04:19;;;;;;;6.30;2.75;;;;;;;;;;1019762;29;20047;-83
2023/03/13 01:04:50;;;;;;;8.50;2.97;;;;;;;;;;1017920;29;20026;-82
2023/03/13 01:05:21;;;;;;;8.77;2.35;;;;;;;;;;1018980;29;20020;-82
2023/03/13 01:05:58;;;;;;;9.55;2.67;;;;;;;;;;1022216;29;20090;-82
2023/03/13 01:06:30;;;;;;;5.35;2.80;;;;;;;;;;1023719;28;20101;-82
2023/03/13 01:07:01;;;;;;;10.07;3.10;;;;;;;;;;1025965;28;20831;-82
2023/03/13 01:07:32;;;;;;;5.03;2.58;;;;;;;;;;1025294;28;20814;-82
2023/03/13 01:08:03;;;;;;;7.35;2.90;;;;;;;;;;1022246;29;20027;-82
2023/03/13 01:08:34;;;;;;;7.53;2.83;;;;;;;;;;1022808;29;20118;-84
2023/03/13 01:09:06;;;;;;;8.25;2.90;;;;;;;;;;1026087;28;20022;-83
2023/03/13 01:09:37;;;;;;;3.97;2.03;;;;;;;;;;1026174;28;20023;-83
2023/03/13 01:10:08;;;;;;;5.45;2.33;;;;;;;;;;1021854;29;20015;-83
2023/03/13 01:10:39;;;;;;;8.57;2.70;;;;;;;;;;1025214;28;20069;-82
2023/03/13 01:11:12;;;;;;;6.47;2.38;;;;;;;;;;1018947;29;20024;-83
2023/03/13 01:11:44;;;;;;;6.65;2.53;;;;;;;;;;1022877;29;20367;-81
2023/03/13 01:12:14;;;;;;;5.57;2.42;;;;;;;;;;1022207;29;20094;-82
2023/03/13 01:12:45;;;;;;;5.30;2.53;;;;;;;;;;1026512;28;20019;-82
2023/03/13 01:13:16;;;;;;;5.55;2.65;;;;;;;;;;1021933;29;20860;-83
2023/03/13 01:13:48;;;;;;;8.27;2.50;;;;;;;;;;1017329;29;20086;-82
2023/03/13 01:14:19;;;;;;;5.32;2.25;;;;;;;;;;1014793;29;20069;-82
2023/03/13 01:14:50;;;;;;;7.05;3.30;;;;;;;;;;1014767;29;20034;-83
2023/03/13 01:15:21;;;;;;;6.03;2.67;;;;;;;;;;1018200;29;20020;-82
2023/03/13 01:15:52;;;;;;;7.28;2.97;;;;;;;;;;1018191;29;20024;-82
2023/03/13 01:16:23;;;;;;;4.88;2.20;;;;;;;;;;1019141;29;20016;-82
2023/03/13 01:16:54;;;;;;;4.65;2.38;;;;;;;;;;1022144;29;20447;-82
2023/03/13 01:17:25;;;;;;;5.37;2.43;;;;;;;;;;1016813;29;20027;-82
2023/03/13 01:17:56;;;;;;;7.40;2.47;;;;;;;;;;1011706;29;20273;-82
2023/03/13 01:18:27;;;;;;;5.10;2.42;;;;;;;;;;1010722;29;20040;-82
2023/03/13 01:18:59;;;;;;;7.65;2.90;;;;;;;;;;1010878;29;20107;-82
2023/03/13 01:19:30;;;;;;;7.10;2.72;;;;;;;;;;1016416;29;20172;-82
2023/03/13 01:20:01;;;;;;;5.78;2.70;;;;;;;;;;1018792;28;20020;-82
2023/03/13 01:20:32;;;;;;;5.13;2.08;;;;;;;;;;1021805;29;20118;-82
2023/03/13 01:21:03;;;;;;;5.43;2.50;;;;;;;;;;1022018;29;20019;-82
2023/03/13 01:21:35;;;;;;;5.97;2.33;;;;;;;;;;1021800;29;20025;-82
2023/03/13 01:22:10;;;;;;;5.85;2.38;;;;;;;;;;1022155;29;20142;-82
2023/03/13 01:22:41;;;;;;;3.90;2.10;;;;;;;;;;1022464;28;20119;-82
2023/03/13 01:23:11;;;;;;;5.88;2.15;;;;;;;;;;1018495;29;20031;-82
2023/03/13 01:23:42;;;;;;;5.88;2.38;;;;;;;;;;1019108;29;20059;-82
2023/03/13 01:24:14;;;;;;;6.53;2.50;;;;;;;;;;1018563;29;20027;-83
2023/03/13 01:24:45;;;;;;;6.10;2.47;;;;;;;;;;1018412;29;20087;-81
2023/03/13 01:25:16;;;;;;;4.68;2.42;;;;;;;;;;1018894;29;20053;-82
2023/03/13 01:25:47;;;;;;;6.47;2.13;;;;;;;;;;1022233;29;20382;-82
2023/03/13 01:26:19;;;;;;;6.20;2.58;;;;;;;;;;1022875;28;20486;-83
2023/03/13 01:26:50;;;;;;;6.93;2.95;;;;;;;;;;1022091;29;20027;-82
2023/03/13 01:27:21;;;;;;;7.55;2.55;;;;;;;;;;1022788;29;20082;-83
2023/03/13 01:27:52;;;;;;;5.60;2.50;;;;;;;;;;1022233;29;20118;-83
2023/03/13 01:28:23;;;;;;;5.15;2.30;;;;;;;;;;1018603;29;20090;-83
2023/03/13 01:28:55;;;;;;;5.93;2.58;;;;;;;;;;1018098;29;20030;-83
2023/03/13 01:29:26;;;;;;;6.05;2.45;;;;;;;;;;1018655;29;20380;-83
2023/03/13 01:29:57;;;;;;;5.95;2.28;;;;;;;;;;1018358;29;20419;-83
2023/03/13 01:30:28;;;;;;;5.47;2.08;;;;;;;;;;1018712;29;20028;-82
2023/03/13 01:30:59;;;;;;;5.97;2.20;;;;;;;;;;1022199;29;20019;-83
2023/03/13 01:31:32;;;;;;;4.38;2.20;;;;;;;;;;1017379;29;20027;-83
2023/03/13 01:32:03;;;;;;;6.32;2.42;;;;;;;;;;1019570;29;20070;-82
2023/03/13 01:32:34;;;;;;;6.15;2.28;;;;;;;;;;1022873;29;20027;-82
2023/03/13 01:33:05;;;;;;;5.97;2.35;;;;;;;;;;1022813;28;20015;-82
2023/03/13 01:33:36;;;;;;;7.45;2.72;;;;;;;;;;1026166;28;20022;-83
2023/03/13 01:34:07;;;;;;;6.75;2.65;;;;;;;;;;1021804;29;20463;-83
2023/03/13 01:34:39;;;;;;;6.18;2.47;;;;;;;;;;1018336;29;20055;-82
2023/03/13 01:35:10;;;;;;;5.95;2.45;;;;;;;;;;1018736;29;20028;-82
2023/03/13 01:35:42;;;;;;;5.60;2.50;;;;;;;;;;1019255;29;20019;-81
2023/03/13 01:36:13;;;;;;;5.72;2.42;;;;;;;;;;1018192;29;20019;-83
2023/03/13 01:36:45;;;;;;;4.85;2.35;;;;;;;;;;1017986;29;20050;-82
2023/03/13 01:37:16;;;;;;;6.43;2.67;;;;;;;;;;1018046;29;20024;-81
2023/03/13 01:37:47;;;;;;;7.00;2.53;;;;;;;;;;1019284;29;20024;-82
2023/03/13 01:38:18;;;;;;;6.95;2.33;;;;;;;;;;1022155;29;20020;-81
2023/03/13 01:38:50;;;;;;;4.32;2.13;;;;;;;;;;1022842;28;20023;-82
2023/03/13 01:39:21;;;;;;;3.60;1.90;;;;;;;;;;1026255;28;20022;-83
2023/03/13 01:39:52;;;;;;;7.53;2.90;;;;;;;;;;1026070;28;20026;-82
2023/03/13 01:40:23;;;;;;;6.47;2.40;;;;;;;;;;1026147;28;20442;-81
2023/03/13 01:40:54;;;;;;;3.28;1.85;;;;;;;;;;1023236;28;20078;-82
2023/03/13 01:41:26;;;;;;;4.80;2.00;;;;;;;;;;1025074;28;20039;-81
2023/03/13 01:41:57;;;;;;;5.07;2.25;;;;;;;;;;1022466;29;20031;-81
2023/03/13 01:42:28;;;;;;;5.55;2.20;;;;;;;;;;1018917;29;20035;-80
2023/03/13 01:43:00;;;;;;;6.82;2.60;;;;;;;;;;1022924;29;20031;-83
2023/03/13 01:43:32;;;;;;;4.88;2.25;;;;;;;;;;1022038;29;20023;-83
2023/03/13 01:44:03;;;;;;;5.82;2.13;;;;;;;;;;1022360;29;20125;-83
2023/03/13 01:44:48;;;;;;;8.25;2.45;;;;;;;;;;1022152;29;20027;-83
2023/03/13 01:45:38;;;;;;;4.78;2.15;;;;;;;;;;1018571;29;20106;-83
2023/03/13 01:46:13;;;;;;;5.80;2.10;;;;;;;;;;1018488;29;20146;-83
2023/03/13 01:46:44;;;;;;;5.88;2.25;;;;;;;;;;1017861;29;20435;-82
2023/03/13 01:47:15;;;;;;;4.90;2.05;;;;;;;;;;1018519;29;20689;-83
2023/03/13 01:47:46;;;;;;;3.40;2.05;;;;;;;;;;1015270;29;20030;-83
2023/03/13 01:48:17;;;;;;;3.50;1.75;;;;;;;;;;1018573;29;20463;-83
2023/03/13 01:48:48;;;;;;;6.13;2.47;;;;;;;;;;1018092;29;20050;-83
2023/03/13 01:49:25;;;;;;;5.60;2.58;;;;;;;;;;1018739;29;20055;-83
2023/03/13 01:49:56;;;;;;;7.75;2.45;;;;;;;;;;1019223;29;20034;-83
2023/03/13 01:50:27;;;;;;;4.25;2.00;;;;;;;;;;1022685;29;20023;-83
2023/03/13 01:51:00;;;;;;;6.28;2.35;;;;;;;;;;1022186;29;20118;-83
2023/03/13 01:51:38;;;;;;;4.32;1.83;;;;;;;;;;1018309;29;20442;-83
2023/03/13 01:52:11;;;;;;;5.15;2.33;;;;;;;;;;1015119;29;20082;-83
2023/03/13 01:52:42;;;;;;;5.45;1.80;;;;;;;;;;1017071;29;20023;-82
2023/03/13 01:53:13;;;;;;;3.80;1.80;;;;;;;;;;1019577;29;20568;-83
2023/03/13 01:53:45;;;;;;;4.90;2.10;;;;;;;;;;1018533;29;20012;-82
2023/03/13 01:54:16;;;;;;;5.43;2.38;;;;;;;;;;1018324;29;20654;-83
2023/03/13 01:55:00;;;;;;;6.20;2.13;;;;;;;;;;1018937;29;20024;-83
2023/03/13 01:55:32;;;;;;;5.18;2.60;;;;;;;;;;1024323;28;20086;-82
2023/03/13 01:56:05;;;;;;;5.15;2.08;;;;;;;;;;1026643;28;20215;-83
2023/03/13 01:56:45;;;;;;;5.50;1.92;;;;;;;;;;1026284;28;20206;-83
2023/03/13 01:57:19;;;;;;;5.53;2.58;;;;;;;;;;1021996;29;20027;-82
2023/03/13 01:57:52;;;;;;;4.43;2.00;;;;;;;;;;1022350;29;20679;-83
2023/03/13 01:58:23;;;;;;;5.68;2.30;;;;;;;;;;1021848;28;20034;-82
2023/03/13 01:58:56;;;;;;;6.22;2.22;;;;;;;;;;1026614;28;20050;-82
2023/03/13 01:59:32;;;;;;;6.82;2.88;;;;;;;;;;1021780;28;20118;-83
2023/03/13 02:00:07;;;;;;;4.63;2.08;;;;;;;;;;1022301;29;20139;-83
2023/03/13 02:00:41;;;;;;;4.70;2.03;;;;;;;;;;1018245;29;20102;-83
2023/03/13 02:01:12;;;;;;;4.05;1.90;;;;;;;;;;1018733;29;20016;-82
2023/03/13 02:01:45;;;;;;;5.55;1.98;;;;;;;;;;1025416;28;20033;-82
2023/03/13 02:02:16;;;;;;;7.07;2.25;;;;;;;;;;1026258;28;20015;-82
2023/03/13 02:02:49;;;;;;;5.35;2.30;;;;;;;;;;1026514;28;20026;-82
2023/03/13 02:03:20;;;;;;;5.57;2.22;;;;;;;;;;1026575;28;20042;-82
2023/03/13 02:03:52;;;;;;;5.68;2.33;;;;;;;;;;1025533;28;20065;-81
2023/03/13 02:04:23;;;;;;;5.50;2.38;;;;;;;;;;1023060;29;20075;-81
2023/03/13 02:04:56;;;;;;;4.45;2.10;;;;;;;;;;1022279;29;20015;-83
2023/03/13 02:05:28;;;;;;;4.63;1.90;;;;;;;;;;1018290;29;20027;-82
2023/03/13 02:06:00;;;;;;;4.53;1.63;;;;;;;;;;1018386;29;20032;-82
2023/03/13 02:06:32;;;;;;;4.30;1.60;;;;;;;;;;1017326;29;20015;-82
2023/03/13 02:07:07;;;;;;;4.13;1.90;;;;;;;;;;1015030;29;20098;-82
2023/03/13 02:07:42;;;;;;;4.20;1.85;;;;;;;;;;1021840;28;20062;-82
2023/03/13 02:08:17;;;;;;;5.07;2.40;;;;;;;;;;1026603;28;20023;-82
2023/03/13 02:08:53;;;;;;;3.85;2.10;;;;;;;;;;1024918;28;20110;-82
2023/03/13 02:09:26;;;;;;;3.42;1.85;;;;;;;;;;1026468;28;20110;-82
2023/03/13 02:09:57;;;;;;;4.65;1.73;;;;;;;;;;1022263;29;20023;-82
2023/03/13 02:10:29;;;;;;;3.65;1.67;;;;;;;;;;1022337;28;20011;-82
2023/03/13 02:11:21;;;;;;;4.25;2.05;;;;;;;;;;1017808;29;20466;-82
2023/03/13 02:12:06;;;;;;;4.30;1.60;;;;;;;;;;1021580;29;20094;-82
2023/03/13 02:12:38;;;;;;;4.45;1.73;;;;;;;;;;1019378;29;20035;-81
2023/03/13 02:13:13;;;;;;;5.35;2.10;;;;;;;;;;1024159;28;20422;-82
2023/03/13 02:13:44;;;;;;;5.68;2.40;;;;;;;;;;1026400;28;20065;-82
2023/03/13 02:14:18;;;;;;;2.35;1.60;;;;;;;;;;1025151;28;20190;-82
2023/03/13 02:14:50;;;;;;;3.92;1.73;;;;;;;;;;1022462;29;20102;-82
2023/03/13 02:15:22;;;;;;;4.43;2.50;;;;;;;;;;1021763;29;20317;-82
2023/03/13 02:15:53;;;;;;;5.78;2.60;;;;;;;;;;1022683;29;20028;-82
2023/03/13 02:16:24;;;;;;;6.72;2.50;;;;;;;;;;1025293;28;20173;-82
2023/03/13 02:16:55;;;;;;;4.13;1.65;;;;;;;;;;1022373;29;20149;-82
2023/03/13 02:17:27;;;;;;;3.58;1.70;;;;;;;;;;1021930;28;20020;-83
2023/03/13 02:17:59;;;;;;;4.50;1.88;;;;;;;;;;1022418;28;20023;-82
2023/03/13 02:18:30;;;;;;;4.38;1.92;;;;;;;;;;1018393;29;20023;-82
2023/03/13 02:19:02;;;;;;;3.25;1.73;;;;;;;;;;1022437;29;20031;-82
2023/03/13 02:19:33;;;;;;;3.38;1.60;;;;;;;;;;1022096;28;20023;-82
2023/03/13 02:20:04;;;;;;;3.73;1.80;;;;;;;;;;1022627;29;20031;-82
2023/03/13 02:20:35;;;;;;;4.55;1.65;;;;;;;;;;1022564;29;20259;-82
2023/03/13 02:21:20;;;;;;;3.75;1.77;;;;;;;;;;1022582;29;20031;-82
2023/03/13 02:21:59;;;;;;;4.07;1.75;;;;;;;;;;1026220;28;20117;-81
2023/03/13 02:22:39;;;;;;;3.05;1.50;;;;;;;;;;1022221;29;20039;-82
2023/03/13 02:23:15;;;;;;;4.85;1.98;;;;;;;;;;1018183;29;20039;-82
2023/03/13 02:23:54;;;;;;;3.38;1.67;;;;;;;;;;1017074;29;20127;-82
2023/03/13 02:24:32;;;;;;;3.90;2.00;;;;;;;;;;1014454;29;20032;-82
2023/03/13 02:25:03;;;;;;;;;;;;;;;;;;1022069;29;20074;-82
2023/03/13 02:25:42;;;;;;;2.23;1.40;;;;;;;;;;1018371;29;19979;-82
2023/03/13 02:26:13;;;;;;;2.58;1.40;;;;;;;;;;1020630;28;20122;-82
2023/03/13 02:26:44;;;;;;;3.65;1.70;;;;;;;;;;1018136;29;20063;-82
2023/03/13 02:27:15;;;;;;;3.08;1.45;;;;;;;;;;1019812;29;20046;-82
2023/03/13 02:27:46;;;;;;;3.58;1.60;;;;;;;;;;1022073;29;20058;-82
2023/03/13 02:28:23;;;;;;;5.07;1.85;;;;;;;;;;1019102;29;20083;-82
2023/03/13 02:28:54;;;;;;;3.08;1.48;;;;;;;;;;1022056;29;20692;-82
2023/03/13 02:29:25;;;;;;;4.28;1.73;;;;;;;;;;1023175;28;20570;-82
2023/03/13 02:29:57;;;;;;;3.95;1.20;;;;;;;;;;1022170;28;20134;-82
2023/03/13 02:30:28;;;;;;;2.35;1.60;;;;;;;;;;1022510;29;20094;-82
2023/03/13 02:30:59;;;;;;;4.10;1.88;;;;;;;;;;1018288;29;20099;-82
2023/03/13 02:31:30;;;;;;;4.10;1.63;;;;;;;;;;1018403;29;20032;-82
2023/03/13 02:32:01;;;;;;;3.00;1.48;;;;;;;;;;1022522;29;20043;-82
2023/03/13 02:32:32;;;;;;;4.28;2.22;;;;;;;;;;1022230;29;20572;-82
2023/03/13 02:33:04;;;;;;;4.35;1.70;;;;;;;;;;1021994;28;20031;-82
2023/03/13 02:33:36;;;;;;;4.35;1.75;;;;;;;;;;1026663;28;20677;-80
2023/03/13 02:34:07;;;;;;;2.75;1.30;;;;;;;;;;1018276;29;20035;-82
2023/03/13 02:34:39;;;;;;;3.22;1.65;;;;;;;;;;1018256;29;20152;-82
2023/03/13 02:35:13;;;;;;;4.25;1.70;;;;;;;;;;1018600;29;20067;-80
2023/03/13 02:35:44;;;;;;;3.53;1.65;;;;;;;;;;1018484;29;20036;-82
2023/03/13 02:36:16;;;;;;;6.30;2.15;;;;;;;;;;1018300;29;20060;-82
2023/03/13 02:36:47;;;;;;;4.32;1.73;;;;;;;;;;1017880;29;20028;-82
2023/03/13 02:37:19;;;;;;;3.92;1.58;;;;;;;;;;1018532;29;20043;-82
2023/03/13 02:37:51;;;;;;;3.67;1.58;;;;;;;;;;1018232;29;20031;-82
2023/03/13 02:38:27;;;;;;;3.70;1.88;;;;;;;;;;1018538;29;20422;-82
2023/03/13 02:39:01;;;;;;;4.45;1.50;;;;;;;;;;1018634;29;20036;-82
2023/03/13 02:39:32;;;;;;;2.17;1.40;;;;;;;;;;1019384;29;20040;-82
2023/03/13 02:40:08;;;;;;;3.95;1.45;;;;;;;;;;1018396;29;20119;-82
2023/03/13 02:40:41;;;;;;;3.80;1.30;;;;;;;;;;1015487;29;20114;-82
2023/03/13 02:41:13;;;;;;;3.88;1.60;;;;;;;;;;1020250;29;20028;-82
2023/03/13 02:41:44;;;;;;;2.60;1.40;;;;;;;;;;1018552;29;20038;-82
2023/03/13 02:42:17;;;;;;;4.35;1.80;;;;;;;;;;1019302;29;20085;-82
2023/03/13 02:42:48;;;;;;;4.00;1.38;;;;;;;;;;1022721;28;20035;-82
2023/03/13 02:43:25;;;;;;;4.78;1.65;;;;;;;;;;1025700;28;20025;-82
2023/03/13 02:43:56;;;;;;;3.80;1.52;;;;;;;;;;1026471;28;20457;-82
2023/03/13 02:44:27;;;;;;;3.13;1.70;;;;;;;;;;1026010;28;20462;-83
2023/03/13 02:44:58;;;;;;;3.60;1.90;;;;;;;;;;1026075;28;20510;-82
2023/03/13 02:45:29;;;;;;;4.07;1.80;;;;;;;;;;1025825;28;20023;-83
2023/03/13 02:46:01;;;;;;;3.22;1.63;;;;;;;;;;1022507;29;20031;-83
2023/03/13 02:46:43;;;;;;;2.45;1.33;;;;;;;;;;1022418;29;20051;-82
2023/03/13 02:47:19;;;;;;;4.05;1.50;;;;;;;;;;1022456;29;20081;-83
2023/03/13 02:47:50;;;;;;;2.58;1.50;;;;;;;;;;1021869;29;20031;-83
2023/03/13 02:48:30;;;;;;;3.35;1.25;;;;;;;;;;1022159;28;20090;-82
2023/03/13 02:49:16;;;;;;;4.35;1.60;;;;;;;;;;1022079;29;20078;-82
2023/03/13 02:49:47;;;;;;;3.35;1.40;;;;;;;;;;1025415;28;20110;-83
2023/03/13 02:50:19;;;;;;;4.45;1.42;;;;;;;;;;1022856;28;20110;-82
2023/03/13 02:50:50;;;;;;;3.25;1.58;;;;;;;;;;1021772;29;20027;-82
2023/03/13 02:51:51;;;;;;;3.67;1.45;;;;;;;;;;1022736;28;20027;-83
2023/03/13 02:52:30;;;;;;;2.80;1.35;;;;;;;;;;1007569;29;20036;-83
2023/03/13 02:53:03;;;;;;;2.30;1.38;;;;;;;;;;1018118;29;20039;-82
2023/03/13 02:53:35;;;;;;;2.92;1.60;;;;;;;;;;1018204;29;20186;-82
2023/03/13 02:54:08;;;;;;;3.30;1.33;;;;;;;;;;1015143;29;20087;-82
2023/03/13 02:54:39;;;;;;;1.85;1.10;;;;;;;;;;1019483;29;20036;-83
2023/03/13 02:55:16;;;;;;;3.35;1.77;;;;;;;;;;1021830;28;20611;-83
2023/03/13 02:55:47;;;;;;;2.05;1.23;;;;;;;;;;1023853;28;20593;-83
2023/03/13 02:56:19;;;;;;;2.50;1.20;;;;;;;;;;1026068;28;20166;-82
2023/03/13 02:56:54;;;;;;;2.05;1.10;;;;;;;;;;1021594;29;20042;-82
2023/03/13 02:57:25;;;;;;;5.85;1.95;;;;;;;;;;1018132;29;20095;-82
2023/03/13 02:57:56;;;;;;;4.10;1.85;;;;;;;;;;1018359;29;20124;-82
2023/03/13 02:58:27;;;;;;;3.17;1.58;;;;;;;;;;1021386;29;20023;-82
2023/03/13 02:58:58;;;;;;;2.65;1.30;;;;;;;;;;1017360;29;20031;-82
2023/03/13 02:59:29;;;;;;;4.00;1.38;;;;;;;;;;1021943;28;20747;-82
2023/03/13 03:00:00;;;;;;;3.80;1.73;;;;;;;;;;1018638;29;20523;-82
2023/03/13 03:00:31;;;;;;;3.42;1.20;;;;;;;;;;1014187;29;20608;-82
2023/03/13 03:01:06;;;;;;;2.75;1.70;;;;;;;;;;1014235;29;20435;-82
2023/03/13 03:01:37;;;;;;;2.90;1.25;;;;;;;;;;1014208;29;20031;-82
2023/03/13 03:02:08;;;;;;;2.47;1.40;;;;;;;;;;1010594;29;20662;-80
2023/03/13 03:02:39;;;;;;;4.03;1.60;;;;;;;;;;1010970;29;20568;-81
2023/03/13 03:03:11;;;;;;;3.28;1.40;;;;;;;;;;1014775;29;20387;-81
2023/03/13 03:03:42;;;;;;;2.95;1.63;;;;;;;;;;1014095;29;20028;-81
2023/03/13 03:04:12;;;;;;;2.63;1.10;;;;;;;;;;1018636;29;20032;-82
2023/03/13 03:04:43;;;;;;;2.45;1.30;;;;;;;;;;1021938;28;20030;-81
2023/03/13 03:05:14;;;;;;;2.92;1.30;;;;;;;;;;1022563;28;20023;-81
2023/03/13 03:05:45;;;;;;;4.10;1.70;;;;;;;;;;1026469;28;20026;-82
2023/03/13 03:06:16;;;;;;;3.38;1.60;;;;;;;;;;1025997;28;20440;-82
2023/03/13 03:06:48;;;;;;;2.33;1.50;;;;;;;;;;1021794;28;20026;-81
2023/03/13 03:07:19;;;;;;;4.97;1.52;;;;;;;;;;1026160;28;20118;-81
2023/03/13 03:07:50;;;;;;;2.67;1.30;;;;;;;;;;1018312;29;20024;-82
2023/03/13 03:08:21;;;;;;;3.17;1.50;;;;;;;;;;1018248;29;20331;-82
2023/03/13 03:08:52;;;;;;;3.47;1.83;;;;;;;;;;1018204;29;20037;-82
2023/03/13 03:09:23;;;;;;;2.05;1.20;;;;;;;;;;1018289;29;20479;-81
2023/03/13 03:09:54;;;;;;;3.35;1.27;;;;;;;;;;1018352;29;20027;-82
2023/03/13 03:10:25;;;;;;;3.25;1.60;;;;;;;;;;1022333;29;20040;-81
2023/03/13 03:10:56;;;;;;;3.47;1.20;;;;;;;;;;1018684;29;20446;-81
2023/03/13 03:11:27;;;;;;;2.53;1.30;;;;;;;;;;1022804;29;20120;-81
2023/03/13 03:11:58;;;;;;;1.77;1.23;;;;;;;;;;1023003;29;20019;-82
2023/03/13 03:12:29;;;;;;;3.75;1.40;;;;;;;;;;1023145;28;20045;-82
2023/03/13 03:13:00;;;;;;;2.67;1.65;;;;;;;;;;1022309;28;20036;-82
2023/03/13 03:13:32;;;;;;;2.88;1.70;;;;;;;;;;1019372;29;20050;-82
2023/03/13 03:14:03;;;;;;;2.10;1.13;;;;;;;;;;1015848;29;20636;-81
2023/03/13 03:14:34;;;;;;;1.95;1.33;;;;;;;;;;1023077;29;20674;-82